createdAt,value
2023-03-13T00:02:36.582Z,77.49
2023-03-13T00:07:41.959Z,77.85
2023-03-13T00:12:47.486Z,78.46
2023-03-13T00:17:52.899Z,79.30
2023-03-13T00:22:58.563Z,80.17
2023-03-13T00:28:03.950Z,80.81
2023-03-13T00:33:10.470Z,80.82
2023-03-13T00:38:15.932Z,81.90
2023-03-13T00:43:21.396Z,82.41
2023-03-13T00:48:27.204Z,82.33
2023-03-13T00:53:32.733Z,83.29
2023-03-13T00:58:40.882Z,83.29
2023-03-13T01:03:49.480Z,84.13
2023-03-13T01:08:55.401Z,84.77
2023-03-13T01:14:03.825Z,84.78
2023-03-13T01:19:15.953Z,85.25
2023-03-13T01:24:24.706Z,85.30
2023-03-13T01:29:30.280Z,85.57
2023-03-13T01:34:37.190Z,85.82
2023-03-13T01:39:42.990Z,86.36
2023-03-13T01:44:54.731Z,86.71
2023-03-13T01:50:01.326Z,86.80
2023-03-13T01:55:27.025Z,86.63
2023-03-13T02:00:36.840Z,86.89
2023-03-13T02:05:45.363Z,87.40
2023-03-13T02:10:57.617Z,87.64
2023-03-13T02:16:04.306Z,87.92
2023-03-13T02:21:43.336Z,87.97
2023-03-13T02:26:49.106Z,88.17
2023-03-13T02:31:55.498Z,88.44
2023-03-13T02:37:02.882Z,88.79
2023-03-13T02:42:09.823Z,88.90
2023-03-13T02:47:24.702Z,89.00
2023-03-13T02:52:38.473Z,88.92
2023-03-13T02:57:44.351Z,89.06
2023-03-13T03:02:49.832Z,88.92
2023-03-13T03:07:55.523Z,88.94
2023-03-13T03:13:01.640Z,89.25
2023-03-13T03:18:08.391Z,89.21
2023-03-13T03:23:14.065Z,88.98
2023-03-13T03:28:19.608Z,89.03
2023-03-13T03:33:25.755Z,89.20
2023-03-13T03:38:32.086Z,89.37
2023-03-13T03:43:37.737Z,89.40
2023-03-13T03:48:44.023Z,89.40
2023-03-13T03:53:50.043Z,89.53
2023-03-13T03:58:55.645Z,89.50
2023-03-13T04:04:03.647Z,89.69
2023-03-13T04:09:11.008Z,89.53
2023-03-13T04:14:16.766Z,89.19
2023-03-13T04:19:23.055Z,89.58
2023-03-13T04:24:29.148Z,89.62
2023-03-13T04:29:35.842Z,89.82
2023-03-13T04:34:43.608Z,89.87
2023-03-13T04:39:56.880Z,89.58
2023-03-13T04:45:04.018Z,89.64
2023-03-13T04:50:27.383Z,89.79
2023-03-13T04:55:52.790Z,89.89
2023-03-13T05:01:06.595Z,89.75
2023-03-13T05:06:16.676Z,89.83
2023-03-13T05:11:36.108Z,89.92
2023-03-13T05:17:12.119Z,89.65
2023-03-13T05:22:34.628Z,89.56
2023-03-13T05:27:59.779Z,89.83
2023-03-13T05:33:06.887Z,89.68
2023-03-13T05:38:23.328Z,89.70
2023-03-13T05:43:46.694Z,89.65
2023-03-13T05:48:53.927Z,89.96
2023-03-13T05:54:01.064Z,89.93
2023-03-13T05:59:24.665Z,89.88
2023-03-13T06:04:38.193Z,90.17
2023-03-13T06:09:43.924Z,89.86
2023-03-13T06:14:49.549Z,89.86
2023-03-13T06:20:02.628Z,89.96
2023-03-13T06:25:08.991Z,89.76
2023-03-13T06:30:14.695Z,90.11
2023-03-13T06:35:20.405Z,89.95
2023-03-13T06:40:25.940Z,89.52
2023-03-13T06:45:31.686Z,89.61
2023-03-13T06:50:42.170Z,90.27
2023-03-13T06:55:49.286Z,90.02
2023-03-13T07:00:54.976Z,90.12
2023-03-13T07:06:01.091Z,90.12
2023-03-13T07:11:09.942Z,89.91
2023-03-13T07:16:16.624Z,90.35
2023-03-13T07:21:22.104Z,90.25
2023-03-13T07:26:27.675Z,90.05
2023-03-13T07:31:34.300Z,90.52
2023-03-13T07:36:41.783Z,90.29
2023-03-13T07:41:47.649Z,90.53
2023-03-13T07:46:54.970Z,90.71
2023-03-13T07:52:00.563Z,90.31
2023-03-13T07:57:06.875Z,90.33
2023-03-13T08:02:17.253Z,90.09
2023-03-13T08:07:22.940Z,90.17
2023-03-13T08:12:28.398Z,90.96
2023-03-13T08:17:33.945Z,89.79
2023-03-13T08:22:39.419Z,89.63
2023-03-13T08:27:45.191Z,90.35
2023-03-13T08:32:50.885Z,90.21
2023-03-13T08:37:56.388Z,90.14
2023-03-13T08:43:01.849Z,89.75
2023-03-13T08:48:07.573Z,90.21
2023-03-13T08:53:13.144Z,89.34
2023-03-13T08:58:19.121Z,89.86
2023-03-13T09:03:24.736Z,89.54
2023-03-13T09:08:31.834Z,90.21
2023-03-13T09:13:39.946Z,89.57
2023-03-13T09:18:46.369Z,90.27
2023-03-13T09:23:52.859Z,89.33
2023-03-13T09:28:58.736Z,89.72
2023-03-13T09:34:05.074Z,89.45
2023-03-13T09:39:10.567Z,89.68
2023-03-13T09:44:24.783Z,89.44
2023-03-13T09:49:37.103Z,89.72
2023-03-13T09:55:06.919Z,89.69
2023-03-13T10:00:24.430Z,89.75
2023-03-13T10:05:31.563Z,90.27
2023-03-13T10:10:42.827Z,90.54
2023-03-13T10:15:57.198Z,90.83
2023-03-13T10:21:08.475Z,90.70
2023-03-13T10:26:20.019Z,91.32
2023-03-13T10:31:37.203Z,91.56
2023-03-13T10:36:46.053Z,92.00
2023-03-13T10:41:53.863Z,92.34
2023-03-13T10:47:02.824Z,92.24
2023-03-13T10:52:09.887Z,92.75
2023-03-13T10:57:20.902Z,92.99
2023-03-13T11:02:36.244Z,92.26
2023-03-13T11:07:41.871Z,93.12
2023-03-13T11:12:51.420Z,93.19
2023-03-13T11:18:08.858Z,93.98
2023-03-13T11:23:23.470Z,93.56
2023-03-13T11:28:47.174Z,94.06
2023-03-13T11:34:26.994Z,94.40
2023-03-13T11:39:47.755Z,94.68
2023-03-13T11:45:11.396Z,94.36
2023-03-13T11:50:29.399Z,94.17
2023-03-13T11:55:42.498Z,94.19
2023-03-13T12:00:55.865Z,94.24
2023-03-13T12:06:27.338Z,93.72
2023-03-13T12:11:32.720Z,94.08
2023-03-13T12:16:47.581Z,93.47
2023-03-13T12:21:55.816Z,93.65
2023-03-13T12:27:04.422Z,93.59
2023-03-13T12:32:37.197Z,93.59
2023-03-13T12:37:59.238Z,93.76
2023-03-13T12:43:07.655Z,93.69
2023-03-13T12:48:37.087Z,93.51
2023-03-13T12:54:08.815Z,93.47
2023-03-13T12:59:23.192Z,93.48
2023-03-13T13:04:31.669Z,93.28
2023-03-13T13:09:40.194Z,93.19
2023-03-13T13:14:54.585Z,91.91
2023-03-13T13:20:00.048Z,92.65
2023-03-13T13:25:30.899Z,91.81
2023-03-13T13:30:37.001Z,91.44
2023-03-13T13:35:42.741Z,91.37
2023-03-13T13:41:11.895Z,90.27
2023-03-13T13:46:37.071Z,90.42
2023-03-13T13:51:44.274Z,88.71
2023-03-13T13:57:13.320Z,86.95
2023-03-13T14:02:27.894Z,85.83
2023-03-13T14:07:39.208Z,84.96
2023-03-13T14:12:50.740Z,84.23
2023-03-13T14:18:14.585Z,82.86
2023-03-13T14:23:35.022Z,81.08
2023-03-13T14:28:43.507Z,80.73
2023-03-13T14:33:49.400Z,81.25
2023-03-13T14:39:00.172Z,80.57
2023-03-13T14:44:20.746Z,78.96
2023-03-13T14:49:30.760Z,78.07
2023-03-13T14:54:42.146Z,77.62
2023-03-13T14:59:48.612Z,76.47
2023-03-13T15:05:01.843Z,75.44
2023-03-13T15:10:28.704Z,75.04
2023-03-13T15:15:34.234Z,74.15
2023-03-13T15:20:39.730Z,73.64
2023-03-13T15:25:45.633Z,73.27
2023-03-13T15:30:53.229Z,72.18
2023-03-13T15:35:59.081Z,71.29
2023-03-13T15:41:05.213Z,71.42
2023-03-13T15:46:16.958Z,70.36
2023-03-13T15:51:23.241Z,70.61
2023-03-13T15:56:32.307Z,70.47
2023-03-13T16:01:38.891Z,70.36
2023-03-13T16:06:44.423Z,70.09
2023-03-13T16:11:50.372Z,69.88
2023-03-13T16:16:56.182Z,69.80
2023-03-13T16:22:01.645Z,69.38
2023-03-13T16:27:16.216Z,68.86
2023-03-13T16:32:23.338Z,68.76
2023-03-13T16:37:28.882Z,68.64
2023-03-13T16:42:34.409Z,68.59
2023-03-13T16:47:40.493Z,68.81
2023-03-13T16:52:46.048Z,68.84
2023-03-13T16:57:52.487Z,68.98
2023-03-13T17:02:58.833Z,69.37
2023-03-13T17:08:04.477Z,69.54
2023-03-13T17:13:09.957Z,69.90
2023-03-13T17:18:15.600Z,69.99
2023-03-13T17:23:21.095Z,70.01
2023-03-13T17:28:26.543Z,70.35
2023-03-13T17:33:32.206Z,70.34
2023-03-13T17:38:37.659Z,70.33
2023-03-13T17:43:44.108Z,70.42
2023-03-13T17:48:52.444Z,70.35
2023-03-13T17:54:01.173Z,70.64
2023-03-13T17:59:09.631Z,70.84
2023-03-13T18:04:15.364Z,71.28
2023-03-13T18:09:23.002Z,71.77
2023-03-13T18:14:28.664Z,72.44
2023-03-13T18:19:34.180Z,72.84
2023-03-13T18:24:39.629Z,73.51
2023-03-13T18:29:46.365Z,73.64
2023-03-13T18:34:51.941Z,74.20
2023-03-13T18:40:00.622Z,74.27
2023-03-13T18:45:07.552Z,74.58
2023-03-13T18:50:31.205Z,74.76
2023-03-13T18:55:36.580Z,74.88
2023-03-13T19:00:42.165Z,74.81
2023-03-13T19:05:47.918Z,74.96
2023-03-13T19:10:53.494Z,75.00
2023-03-13T19:15:59.003Z,75.14
2023-03-13T19:21:04.472Z,75.34
2023-03-13T19:26:12.974Z,75.17
2023-03-13T19:31:18.815Z,75.35
2023-03-13T19:36:25.720Z,75.64
2023-03-13T19:41:31.179Z,75.78
2023-03-13T19:46:38.765Z,75.67
2023-03-13T19:51:45.582Z,75.92
2023-03-13T19:56:53.628Z,75.88
2023-03-13T20:02:00.910Z,76.20
2023-03-13T20:07:06.456Z,76.12
2023-03-13T20:12:11.992Z,76.46
2023-03-13T20:17:17.473Z,76.70
2023-03-13T20:22:23.291Z,76.75
2023-03-13T20:27:28.780Z,76.95
2023-03-13T20:32:34.345Z,77.08
2023-03-13T20:37:40.046Z,77.22
2023-03-13T20:42:45.538Z,77.13
2023-03-13T20:47:51.371Z,77.32
2023-03-13T20:52:56.770Z,77.39
2023-03-13T20:58:02.302Z,77.20
2023-03-13T21:03:07.886Z,77.45
2023-03-13T21:08:14.489Z,77.20
2023-03-13T21:13:19.938Z,77.19
2023-03-13T21:18:25.369Z,77.16
2023-03-13T21:23:31.623Z,77.14
2023-03-13T21:28:37.276Z,77.16
2023-03-13T21:33:43.698Z,77.19
2023-03-13T21:38:50.835Z,77.09
2023-03-13T21:43:56.609Z,77.24
2023-03-13T21:49:02.407Z,77.09
2023-03-13T21:54:08.116Z,77.04
2023-03-13T21:59:13.765Z,76.96
2023-03-13T22:04:19.220Z,76.80
2023-03-13T22:09:24.843Z,76.81
2023-03-13T22:14:30.400Z,76.85
2023-03-13T22:19:35.923Z,76.64
2023-03-13T22:24:41.461Z,76.64
2023-03-13T22:29:47.778Z,76.65
2023-03-13T22:34:53.572Z,76.93
2023-03-13T22:39:58.994Z,76.98
2023-03-13T22:45:05.246Z,76.90
2023-03-13T22:50:12.609Z,76.83
2023-03-13T22:55:18.336Z,76.87
2023-03-13T23:00:23.889Z,76.90
2023-03-13T23:05:30.582Z,76.83
2023-03-13T23:10:37.599Z,76.92
2023-03-13T23:15:59.223Z,76.79
2023-03-13T23:20:50.996Z,76.84
2023-03-13T23:25:56.369Z,76.65
2023-03-13T23:31:03.326Z,76.60
2023-03-13T23:36:14.443Z,76.77
2023-03-13T23:41:21.863Z,76.79
2023-03-13T23:46:27.718Z,76.62
2023-03-13T23:51:33.181Z,76.74
2023-03-13T23:56:38.641Z,76.71
